Disclaimer

Please do not use the information listed here in-flight or in-navigation, as they are not provided to us by the airports but are provided by volunteers, so they might be outdated.

Search


Regions


Airport information page

Radio informations:
AWOS - 126.25 MHz

Airport informations:
Latitude: 50° 11' 24.00" N
Longitude: 061° 47' 21.00" W
Elevation: 39 feet - 12 meters
Operating hours: N/A
Operating agency: Municipal
Timezone: Second Sunday in March at 0200 to first Sunday in November at 0200 local time (Exception Arizona and that portion of Indiana in the Eastern Time Zone)
Fuel: Jet B, Wide cut turbine fuel, Without icing inhibitor.

100/130 MIL Spec, low lead, aviation gasoline (BLUE)

Runway information:
14/32 - 4494 x 100 feet< - >1370 x 30 meters

Recent METARs:
CYNA 181600Z AUTO 31013KT 9SM CLR M06/M13 A3005 RMK SLP179
CYNA 181700Z AUTO 29009G17KT 9SM CLR M06/M12 A3006 RMK SLP181
CYNA 181700Z AUTO 29009G17KT 9SM CLR M06/M12 A3006 RMK SLP181

Airport on the map: